createdAt,value
2018-12-26T00:01:40.271Z,3.60
2018-12-26T00:04:20.152Z,3.60
2018-12-26T00:06:59.196Z,3.50
2018-12-26T00:09:38.368Z,3.80
2018-12-26T00:12:17.508Z,3.40
2018-12-26T00:14:57.389Z,3.60
2018-12-26T00:17:37.100Z,3.60
2018-12-26T00:20:17.109Z,3.60
2018-12-26T00:22:56.140Z,3.60
2018-12-26T00:25:35.344Z,3.80
2018-12-26T00:28:14.466Z,3.50
2018-12-26T00:30:53.549Z,3.60
2018-12-26T00:33:33.405Z,3.60
2018-12-26T00:36:12.411Z,3.60
2018-12-26T00:38:51.329Z,3.60
2018-12-26T00:41:30.408Z,3.40
2018-12-26T00:44:10.316Z,3.50
2018-12-26T00:46:47.505Z,3.50
2018-12-26T00:49:33.524Z,3.60
2018-12-26T00:52:19.466Z,3.60
2018-12-26T00:55:05.388Z,3.60
2018-12-26T00:57:51.316Z,3.50
2018-12-26T01:00:37.240Z,3.60
2018-12-26T01:03:23.185Z,3.60
2018-12-26T01:06:09.378Z,3.60
2018-12-26T01:08:55.296Z,3.60
2018-12-26T01:11:42.048Z,3.60
2018-12-26T01:14:27.977Z,3.60
2018-12-26T01:17:13.907Z,3.60
2018-12-26T01:20:00.149Z,3.60
2018-12-26T01:22:46.114Z,3.50
2018-12-26T01:25:32.045Z,3.40
2018-12-26T01:28:18.203Z,3.50
2018-12-26T01:31:04.159Z,3.50
2018-12-26T01:33:50.168Z,3.60
2018-12-26T01:36:36.355Z,3.30
2018-12-26T01:39:22.272Z,3.50
2018-12-26T01:42:01.441Z,3.50
2018-12-26T01:44:40.409Z,3.50
2018-12-26T01:47:19.716Z,3.40
2018-12-26T01:49:59.752Z,3.50
2018-12-26T01:52:39.518Z,3.40
2018-12-26T01:55:18.708Z,3.40
2018-12-26T01:57:57.728Z,3.50
2018-12-26T02:00:37.576Z,3.40
2018-12-26T02:03:16.664Z,3.40
2018-12-26T02:05:55.630Z,3.40
2018-12-26T02:08:35.488Z,3.30
2018-12-26T02:11:14.492Z,3.40
2018-12-26T02:13:53.540Z,3.40
2018-12-26T02:16:32.620Z,3.50
2018-12-26T02:19:11.704Z,3.40
2018-12-26T02:21:50.681Z,3.20
2018-12-26T02:24:29.684Z,3.60
2018-12-26T02:27:08.656Z,3.50
2018-12-26T02:29:48.528Z,3.40
2018-12-26T02:32:30.308Z,3.50
2018-12-26T02:35:09.610Z,3.40
2018-12-26T02:37:48.613Z,3.40
2018-12-26T02:40:27.903Z,3.30
2018-12-26T02:43:07.713Z,3.40
2018-12-26T02:45:46.759Z,3.40
2018-12-26T02:48:25.788Z,3.50
2018-12-26T02:51:04.729Z,3.30
2018-12-26T02:53:43.776Z,3.30
2018-12-26T02:56:22.782Z,3.50
2018-12-26T02:59:01.709Z,3.50
2018-12-26T03:01:40.648Z,3.40
2018-12-26T03:04:19.637Z,3.40
2018-12-26T03:06:58.651Z,3.30
2018-12-26T03:09:37.812Z,3.20
2018-12-26T03:12:16.826Z,3.30
2018-12-26T03:14:56.800Z,3.30
2018-12-26T03:17:36.814Z,3.40
2018-12-26T03:20:16.430Z,3.30
2018-12-26T03:22:55.960Z,3.30
2018-12-26T03:25:35.684Z,3.30
2018-12-26T03:28:14.596Z,3.20
2018-12-26T03:30:54.348Z,3.40
2018-12-26T03:33:33.442Z,3.60
2018-12-26T03:36:12.573Z,3.40
2018-12-26T03:38:51.564Z,3.40
2018-12-26T03:41:31.384Z,3.40
2018-12-26T03:44:11.316Z,3.60
2018-12-26T03:46:51.117Z,3.70
2018-12-26T03:49:31.228Z,3.70
2018-12-26T03:52:10.977Z,3.70
2018-12-26T03:54:50.076Z,3.80
2018-12-26T03:57:29.289Z,3.80
2018-12-26T04:00:09.809Z,3.80
2018-12-26T04:02:49.320Z,3.90
2018-12-26T04:05:15.764Z,3.90
2018-12-26T04:07:42.021Z,4.00
2018-12-26T04:10:08.051Z,4.00
2018-12-26T04:12:34.102Z,4.10
2018-12-26T04:15:00.156Z,4.10
2018-12-26T04:17:26.195Z,4.10
2018-12-26T04:19:52.536Z,4.20
2018-12-26T04:22:18.794Z,4.20
2018-12-26T04:24:46.135Z,4.20
2018-12-26T04:27:15.611Z,4.30
2018-12-26T04:29:40.144Z,4.30
2018-12-26T04:32:06.203Z,4.30
2018-12-26T04:34:32.243Z,4.40
2018-12-26T04:36:58.300Z,4.40
2018-12-26T04:39:24.358Z,4.40
2018-12-26T04:41:50.401Z,4.50
2018-12-26T04:44:16.456Z,4.50
2018-12-26T04:46:42.529Z,4.50
2018-12-26T04:49:08.564Z,4.50
2018-12-26T04:51:34.638Z,4.60
2018-12-26T04:54:00.671Z,4.60
2018-12-26T04:56:26.713Z,4.60
2018-12-26T04:58:52.769Z,4.60
2018-12-26T05:01:18.813Z,4.70
2018-12-26T05:03:44.871Z,4.70
2018-12-26T05:06:10.998Z,4.70
2018-12-26T05:08:37.179Z,4.70
2018-12-26T05:11:03.215Z,4.80
2018-12-26T05:13:29.269Z,4.70
2018-12-26T05:15:55.315Z,4.80
2018-12-26T05:18:21.732Z,4.80
2018-12-26T05:20:48.107Z,4.80
2018-12-26T05:23:14.151Z,4.80
2018-12-26T05:25:40.216Z,4.80
2018-12-26T05:28:06.259Z,4.80
2018-12-26T05:30:32.295Z,4.80
2018-12-26T05:32:58.354Z,4.80
2018-12-26T05:35:24.413Z,4.80
2018-12-26T05:37:50.558Z,4.80
2018-12-26T05:40:16.680Z,4.80
2018-12-26T05:42:42.753Z,4.80
2018-12-26T05:45:08.819Z,4.80
2018-12-26T05:47:34.880Z,4.80
2018-12-26T05:50:01.209Z,4.80
2018-12-26T05:52:27.286Z,4.80
2018-12-26T05:54:53.412Z,4.80
2018-12-26T05:57:19.454Z,4.80
2018-12-26T05:59:45.503Z,4.80
2018-12-26T06:02:11.564Z,4.80
2018-12-26T06:04:37.622Z,4.80
2018-12-26T06:07:03.667Z,4.80
2018-12-26T06:09:29.999Z,4.80
2018-12-26T06:11:56.047Z,4.80
2018-12-26T06:14:22.198Z,4.80
2018-12-26T06:16:48.435Z,4.80
2018-12-26T06:19:14.589Z,4.90
2018-12-26T06:21:40.647Z,4.90
2018-12-26T06:24:06.703Z,4.90
2018-12-26T06:26:33.024Z,4.90
2018-12-26T06:28:59.067Z,4.90
2018-12-26T06:31:25.458Z,4.90
2018-12-26T06:33:51.528Z,4.90
2018-12-26T06:36:17.892Z,4.90
2018-12-26T06:38:43.931Z,5.00
2018-12-26T06:41:09.991Z,5.00
2018-12-26T06:43:36.372Z,5.00
2018-12-26T06:46:02.429Z,5.00
2018-12-26T06:48:28.494Z,5.00
2018-12-26T06:50:54.543Z,5.10
2018-12-26T06:53:20.683Z,5.10
2018-12-26T06:55:46.728Z,5.10
2018-12-26T06:58:12.787Z,5.10
2018-12-26T07:00:38.835Z,5.20
2018-12-26T07:03:04.884Z,5.20
2018-12-26T07:05:30.932Z,5.20
2018-12-26T07:07:56.979Z,5.20
2018-12-26T07:10:23.053Z,5.20
2018-12-26T07:12:49.175Z,5.20
2018-12-26T07:15:15.532Z,5.30
2018-12-26T07:17:41.572Z,5.30
2018-12-26T07:20:07.615Z,5.30
2018-12-26T07:22:34.776Z,5.30
2018-12-26T07:25:00.841Z,5.30
2018-12-26T07:27:26.896Z,5.30
2018-12-26T07:29:53.108Z,5.40
2018-12-26T07:32:19.143Z,5.40
2018-12-26T07:34:45.517Z,5.40
2018-12-26T07:37:11.582Z,5.40
2018-12-26T07:39:37.626Z,5.40
2018-12-26T07:42:03.668Z,5.40
2018-12-26T07:44:29.720Z,5.40
2018-12-26T07:46:55.868Z,5.50
2018-12-26T07:49:21.918Z,5.50
2018-12-26T07:51:47.961Z,5.50
2018-12-26T07:54:14.012Z,5.50
2018-12-26T07:56:40.068Z,5.50
2018-12-26T07:59:06.132Z,5.50
2018-12-26T08:01:32.176Z,5.50
2018-12-26T08:03:58.216Z,5.50
2018-12-26T08:06:24.267Z,5.50
2018-12-26T08:08:50.338Z,5.50
2018-12-26T08:11:16.524Z,5.50
2018-12-26T08:13:42.576Z,5.60
2018-12-26T08:16:08.615Z,5.60
2018-12-26T08:18:34.684Z,5.60
2018-12-26T08:21:00.740Z,5.60
2018-12-26T08:23:26.788Z,5.60
2018-12-26T08:25:52.840Z,5.60
2018-12-26T08:28:26.465Z,5.60
2018-12-26T08:30:47.112Z,5.60
2018-12-26T08:33:13.163Z,5.60
2018-12-26T08:35:39.211Z,5.60
2018-12-26T08:38:05.268Z,5.60
2018-12-26T08:40:31.315Z,5.60
2018-12-26T08:42:57.348Z,5.60
2018-12-26T08:45:23.413Z,5.60
2018-12-26T08:47:49.465Z,5.70
2018-12-26T08:50:15.504Z,5.70
2018-12-26T08:52:41.560Z,5.70
2018-12-26T08:55:07.615Z,5.70
2018-12-26T08:57:33.988Z,5.70
2018-12-26T09:00:00.273Z,5.70
2018-12-26T09:02:26.361Z,5.80
2018-12-26T09:04:52.403Z,5.80
2018-12-26T09:07:18.460Z,5.80
2018-12-26T09:09:44.765Z,5.80
2018-12-26T09:12:10.803Z,5.90
2018-12-26T09:14:36.855Z,5.90
2018-12-26T09:17:02.901Z,5.90
2018-12-26T09:19:29.223Z,5.90
2018-12-26T09:21:55.259Z,5.90
2018-12-26T09:24:21.301Z,5.90
2018-12-26T09:26:47.354Z,6.00
2018-12-26T09:29:13.391Z,6.00
2018-12-26T09:31:39.436Z,6.00
2018-12-26T09:34:05.872Z,6.00
2018-12-26T09:36:31.915Z,6.10
2018-12-26T09:38:57.968Z,6.10
2018-12-26T09:41:24.291Z,6.10
2018-12-26T09:43:50.335Z,6.10
2018-12-26T09:46:16.384Z,6.20
2018-12-26T09:48:42.720Z,6.20
2018-12-26T09:51:08.817Z,6.20
2018-12-26T09:53:34.881Z,6.20
2018-12-26T09:56:00.931Z,6.30
2018-12-26T09:58:26.972Z,6.30
2018-12-26T10:00:53.026Z,6.40
2018-12-26T10:03:19.063Z,6.40
2018-12-26T10:06:05.005Z,6.40
2018-12-26T10:08:51.164Z,6.40
2018-12-26T10:11:37.108Z,6.50
2018-12-26T10:14:23.023Z,6.50
2018-12-26T10:17:08.956Z,6.50
2018-12-26T10:19:54.877Z,6.50
2018-12-26T10:22:40.808Z,6.90
2018-12-26T10:25:26.741Z,6.60
2018-12-26T10:28:12.901Z,6.80
2018-12-26T10:30:59.072Z,6.90
2018-12-26T10:33:44.990Z,6.90
2018-12-26T10:36:31.167Z,6.90
2018-12-26T10:39:17.348Z,7.00
2018-12-26T10:42:03.519Z,7.20
2018-12-26T10:44:49.696Z,7.20
2018-12-26T10:47:35.621Z,7.10
2018-12-26T10:50:21.563Z,7.20
2018-12-26T10:53:00.831Z,7.30
2018-12-26T10:55:39.792Z,7.30
2018-12-26T10:58:19.880Z,7.30
2018-12-26T11:00:58.853Z,7.20
2018-12-26T11:03:37.781Z,7.40
2018-12-26T11:06:17.003Z,7.30
2018-12-26T11:08:56.080Z,7.60
2018-12-26T11:11:35.090Z,7.50
2018-12-26T11:14:14.072Z,7.60
2018-12-26T11:16:53.208Z,7.70
2018-12-26T11:19:32.180Z,7.70
2018-12-26T11:22:12.194Z,7.70
2018-12-26T11:24:52.081Z,7.70
2018-12-26T11:27:31.180Z,7.70
2018-12-26T11:30:10.245Z,7.80
2018-12-26T11:32:49.297Z,7.70
2018-12-26T11:35:28.357Z,7.90
2018-12-26T11:38:08.077Z,7.90
2018-12-26T11:40:47.192Z,7.90
2018-12-26T11:43:26.167Z,8.00
2018-12-26T11:46:05.685Z,8.20
2018-12-26T11:48:45.576Z,8.20
2018-12-26T11:51:24.703Z,8.20
2018-12-26T11:54:04.522Z,8.20
2018-12-26T11:56:43.550Z,8.30
2018-12-26T11:59:27.144Z,8.30
2018-12-26T12:02:04.260Z,8.30
2018-12-26T12:04:43.407Z,8.40
2018-12-26T12:07:22.381Z,8.30
2018-12-26T12:10:01.464Z,8.30
2018-12-26T12:12:41.352Z,8.60
2018-12-26T12:15:20.356Z,8.30
2018-12-26T12:17:59.639Z,8.50
2018-12-26T12:20:38.738Z,8.70
2018-12-26T12:23:17.712Z,8.40
2018-12-26T12:25:56.881Z,8.50
2018-12-26T12:28:36.830Z,8.70
2018-12-26T12:31:16.048Z,8.60
2018-12-26T12:33:55.160Z,8.50
2018-12-26T12:36:34.314Z,8.60
2018-12-26T12:39:14.249Z,8.60
2018-12-26T12:41:53.221Z,8.60
2018-12-26T12:44:32.209Z,8.70
2018-12-26T12:47:11.198Z,8.60
2018-12-26T12:49:51.006Z,8.70
2018-12-26T12:52:31.168Z,8.80
2018-12-26T12:55:10.291Z,8.60
2018-12-26T12:57:49.328Z,8.60
2018-12-26T13:00:29.166Z,8.70
2018-12-26T13:03:08.220Z,8.80
2018-12-26T13:05:47.371Z,8.60
2018-12-26T13:08:26.365Z,8.70
2018-12-26T13:11:05.477Z,8.70
2018-12-26T13:13:45.584Z,8.70
2018-12-26T13:16:25.265Z,8.70
2018-12-26T13:19:05.058Z,8.60
2018-12-26T13:21:44.008Z,8.70
2018-12-26T13:24:23.137Z,8.60
2018-12-26T13:27:02.216Z,8.60
2018-12-26T13:29:42.204Z,8.70
2018-12-26T13:32:21.504Z,8.60
2018-12-26T13:35:00.576Z,8.70
2018-12-26T13:37:39.611Z,8.60
2018-12-26T13:40:18.612Z,8.60
2018-12-26T13:42:55.716Z,8.80
2018-12-26T13:45:41.628Z,8.70
2018-12-26T13:48:27.825Z,8.80
2018-12-26T13:51:13.756Z,8.50
2018-12-26T13:54:06.668Z,8.50
2018-12-26T13:56:52.849Z,8.70
2018-12-26T13:59:31.986Z,8.50
2018-12-26T14:02:11.237Z,8.50
2018-12-26T14:04:50.981Z,8.70
2018-12-26T14:07:30.085Z,8.60
2018-12-26T14:10:09.927Z,8.60
2018-12-26T14:12:49.025Z,8.50
2018-12-26T14:15:28.290Z,8.80
2018-12-26T14:18:07.301Z,8.80
2018-12-26T14:20:46.471Z,8.70
2018-12-26T14:23:25.765Z,8.80
2018-12-26T14:26:05.016Z,8.70
2018-12-26T14:28:44.887Z,8.90
2018-12-26T14:31:24.196Z,8.80
2018-12-26T14:34:03.996Z,8.70
2018-12-26T14:36:43.061Z,8.90
2018-12-26T14:39:22.944Z,8.90
2018-12-26T14:42:02.101Z,8.90
2018-12-26T14:44:41.131Z,9.00
2018-12-26T14:47:20.214Z,8.90
2018-12-26T14:49:59.372Z,8.80
2018-12-26T14:52:39.318Z,8.80
2018-12-26T14:55:18.345Z,8.90
2018-12-26T14:57:57.693Z,8.80
2018-12-26T15:00:36.794Z,8.70
2018-12-26T15:03:16.395Z,8.90
2018-12-26T15:05:55.884Z,8.70
2018-12-26T15:08:35.280Z,8.90
2018-12-26T15:11:15.020Z,8.70
2018-12-26T15:13:55.242Z,8.70
2018-12-26T15:16:35.112Z,8.80
2018-12-26T15:19:14.766Z,8.80
2018-12-26T15:21:54.601Z,8.70
2018-12-26T15:24:33.624Z,8.80
2018-12-26T15:27:12.619Z,8.80
2018-12-26T15:29:51.639Z,8.70
2018-12-26T15:32:30.928Z,8.50
2018-12-26T15:35:09.955Z,8.60
2018-12-26T15:37:49.041Z,8.60
2018-12-26T15:40:27.990Z,8.50
2018-12-26T15:43:07.225Z,8.70
2018-12-26T15:45:46.996Z,8.60
2018-12-26T15:48:26.822Z,8.40
2018-12-26T15:51:05.907Z,8.40
2018-12-26T15:53:45.047Z,8.40
2018-12-26T15:56:24.321Z,8.20
2018-12-26T15:59:03.949Z,8.10
2018-12-26T16:01:43.025Z,8.00
2018-12-26T16:04:22.237Z,8.20
2018-12-26T16:07:01.354Z,8.10
2018-12-26T16:09:40.511Z,8.10
2018-12-26T16:12:19.861Z,7.90
2018-12-26T16:14:59.073Z,7.80
2018-12-26T16:17:39.038Z,7.70
2018-12-26T16:20:18.916Z,7.80
2018-12-26T16:22:58.102Z,7.80
2018-12-26T16:25:37.221Z,7.40
2018-12-26T16:28:16.350Z,7.60
2018-12-26T16:30:55.384Z,7.40
2018-12-26T16:33:34.483Z,7.30
2018-12-26T16:36:14.345Z,7.20
2018-12-26T16:38:53.337Z,7.20
2018-12-26T16:41:32.457Z,7.10
2018-12-26T16:44:13.554Z,7.00
2018-12-26T16:46:52.569Z,6.80
2018-12-26T16:49:31.613Z,6.90
2018-12-26T16:52:11.574Z,6.90
2018-12-26T16:54:50.541Z,6.70
2018-12-26T16:57:27.649Z,6.70
2018-12-26T17:00:15.039Z,6.60
2018-12-26T17:03:01.635Z,6.40
2018-12-26T17:05:47.562Z,6.60
2018-12-26T17:08:33.492Z,6.50
2018-12-26T17:11:19.416Z,6.30
2018-12-26T17:14:05.345Z,6.40
2018-12-26T17:16:51.257Z,6.40
2018-12-26T17:19:37.433Z,6.40
2018-12-26T17:22:23.356Z,6.20
2018-12-26T17:25:09.278Z,6.20
2018-12-26T17:27:55.209Z,6.20
2018-12-26T17:30:41.129Z,6.10
2018-12-26T17:33:27.061Z,6.10
2018-12-26T17:36:12.984Z,6.00
2018-12-26T17:38:58.909Z,6.00
2018-12-26T17:41:44.829Z,5.90
2018-12-26T17:44:30.758Z,5.80
2018-12-26T17:47:10.881Z,5.70
2018-12-26T17:49:50.160Z,5.80
2018-12-26T17:52:29.922Z,5.80
2018-12-26T17:55:08.925Z,5.80
2018-12-26T17:57:48.038Z,5.70
2018-12-26T18:00:27.194Z,5.60
2018-12-26T18:03:06.212Z,5.60
2018-12-26T18:05:45.199Z,5.60
2018-12-26T18:08:24.261Z,5.60
2018-12-26T18:11:03.485Z,5.60
2018-12-26T18:13:42.520Z,5.50
2018-12-26T18:16:22.273Z,5.50
2018-12-26T18:19:01.297Z,5.60
2018-12-26T18:21:40.367Z,5.30
2018-12-26T18:24:17.488Z,5.40
2018-12-26T18:27:03.516Z,5.40
2018-12-26T18:32:55.007Z,5.30
2018-12-26T18:35:40.939Z,5.50
2018-12-26T18:38:26.852Z,5.40
2018-12-26T18:41:12.783Z,5.30
2018-12-26T18:43:58.961Z,5.20
2018-12-26T18:46:38.992Z,5.10
2018-12-26T18:49:18.755Z,5.00
2018-12-26T18:51:58.699Z,5.10
2018-12-26T18:54:38.621Z,5.10
2018-12-26T18:57:17.667Z,4.90
2018-12-26T18:59:56.782Z,5.00
2018-12-26T19:02:35.762Z,5.00
2018-12-26T19:05:14.834Z,5.00
2018-12-26T19:07:54.191Z,5.10
2018-12-26T19:10:33.236Z,5.00
2018-12-26T19:13:13.106Z,4.80
2018-12-26T19:15:52.170Z,4.80
2018-12-26T19:18:31.277Z,4.80
2018-12-26T19:21:10.289Z,4.90
2018-12-26T19:23:49.624Z,4.90
2018-12-26T19:26:29.500Z,4.90
2018-12-26T19:29:09.150Z,4.80
2018-12-26T19:31:48.223Z,4.90
2018-12-26T19:34:27.329Z,5.00
2018-12-26T19:37:06.447Z,4.70
2018-12-26T19:39:45.452Z,4.90
2018-12-26T19:42:24.652Z,4.90
2018-12-26T19:45:04.069Z,4.90
2018-12-26T19:47:43.860Z,4.70
2018-12-26T19:50:24.235Z,4.90
2018-12-26T19:53:10.156Z,4.90
2018-12-26T19:55:56.091Z,4.90
2018-12-26T19:58:42.009Z,4.90
2018-12-26T20:01:27.937Z,5.00
2018-12-26T20:04:13.864Z,4.80
2018-12-26T20:06:59.795Z,4.80
2018-12-26T20:09:45.712Z,5.00
2018-12-26T20:12:31.645Z,5.00
2018-12-26T20:15:17.568Z,4.90
2018-12-26T20:18:03.492Z,5.00
2018-12-26T20:20:49.408Z,5.00
2018-12-26T20:23:35.347Z,4.90
2018-12-26T20:26:21.299Z,5.10
2018-12-26T20:29:07.292Z,4.90
2018-12-26T20:31:57.069Z,5.10
2018-12-26T20:34:41.034Z,5.10
2018-12-26T20:37:26.977Z,5.20
2018-12-26T20:40:13.148Z,5.10
2018-12-26T20:42:59.081Z,5.20
2018-12-26T20:45:45.030Z,5.20
2018-12-26T20:48:30.994Z,5.20
2018-12-26T20:51:16.911Z,5.20
2018-12-26T20:54:02.851Z,5.20
2018-12-26T20:56:49.029Z,5.30
2018-12-26T20:59:34.950Z,5.20
2018-12-26T21:02:20.868Z,5.20
2018-12-26T21:05:06.892Z,5.30
2018-12-26T21:07:53.062Z,5.00
2018-12-26T21:10:38.981Z,5.10
2018-12-26T21:13:24.909Z,5.00
2018-12-26T21:16:10.829Z,5.10
2018-12-26T21:18:56.757Z,5.00
2018-12-26T21:21:42.675Z,4.90
2018-12-26T21:24:28.733Z,5.00
2018-12-26T21:27:14.749Z,5.00
2018-12-26T21:30:00.776Z,4.80
2018-12-26T21:32:46.809Z,5.00
2018-12-26T21:35:32.733Z,4.90
2018-12-26T21:38:18.666Z,5.00
2018-12-26T21:41:04.582Z,5.10
2018-12-26T21:43:50.521Z,5.00
2018-12-26T21:46:36.685Z,5.00
2018-12-26T21:49:15.982Z,5.10
2018-12-26T21:51:54.998Z,5.00
2018-12-26T21:54:34.049Z,5.00
2018-12-26T21:57:13.141Z,5.20
2018-12-26T21:59:52.221Z,5.00
2018-12-26T22:02:31.419Z,5.00
2018-12-26T22:05:10.731Z,5.10
2018-12-26T22:07:49.843Z,4.80
2018-12-26T22:10:29.028Z,5.00
2018-12-26T22:13:08.017Z,4.90
2018-12-26T22:15:47.156Z,4.80
2018-12-26T22:18:26.120Z,5.00
2018-12-26T22:21:05.241Z,4.90
2018-12-26T22:23:44.458Z,4.90
2018-12-26T22:26:24.425Z,4.90
2018-12-26T22:29:03.450Z,4.90
2018-12-26T22:31:42.457Z,5.10
2018-12-26T22:34:21.825Z,4.90
2018-12-26T22:37:01.081Z,5.10
2018-12-26T22:39:40.892Z,5.00
2018-12-26T22:42:20.005Z,4.90
2018-12-26T22:44:59.278Z,5.00
2018-12-26T22:47:38.588Z,5.00
2018-12-26T22:50:18.412Z,5.20
2018-12-26T22:52:57.478Z,5.00
2018-12-26T22:55:36.799Z,4.90
2018-12-26T22:58:15.818Z,4.90
2018-12-26T23:00:55.249Z,4.80
2018-12-26T23:03:35.157Z,5.00
2018-12-26T23:06:15.093Z,5.00
2018-12-26T23:08:54.308Z,5.00
2018-12-26T23:11:33.397Z,5.00
2018-12-26T23:14:10.441Z,5.00
2018-12-26T23:16:56.468Z,4.80
2018-12-26T23:19:42.392Z,4.90
2018-12-26T23:22:28.315Z,5.10
2018-12-26T23:25:14.357Z,5.20
2018-12-26T23:28:00.280Z,5.10
2018-12-26T23:30:46.204Z,5.00
2018-12-26T23:33:32.124Z,5.10
2018-12-26T23:36:18.059Z,5.10
2018-12-26T23:39:04.783Z,5.10
2018-12-26T23:41:50.717Z,5.10
2018-12-26T23:44:36.880Z,5.10
2018-12-26T23:47:22.809Z,4.90
2018-12-26T23:53:23.858Z,5.10
2018-12-26T23:56:03.001Z,5.10
2018-12-26T23:58:42.091Z,5.00
